createdAt,value
2023-05-14T00:03:32.528Z,8.25
2023-05-14T00:05:59.520Z,8.20
2023-05-14T00:08:26.367Z,8.52
2023-05-14T00:10:53.188Z,9.32
2023-05-14T00:13:20.032Z,10.68
2023-05-14T00:15:46.804Z,9.77
2023-05-14T00:18:13.634Z,8.25
2023-05-14T00:20:40.991Z,8.32
2023-05-14T00:23:08.933Z,10.73
2023-05-14T00:25:36.474Z,7.78
2023-05-14T00:28:04.009Z,9.35
2023-05-14T00:30:30.787Z,7.55
2023-05-14T00:32:57.682Z,8.35
2023-05-14T00:35:24.595Z,9.35
2023-05-14T00:37:51.417Z,9.65
2023-05-14T00:40:18.501Z,11.13
2023-05-14T00:42:46.335Z,9.40
2023-05-14T00:45:13.499Z,9.43
2023-05-14T00:47:41.010Z,8.90
2023-05-14T00:50:08.865Z,9.60
2023-05-14T00:52:37.651Z,9.00
2023-05-14T00:55:06.839Z,9.25
2023-05-14T00:57:36.150Z,11.35
2023-05-14T01:00:04.098Z,11.27
2023-05-14T01:02:30.904Z,10.38
2023-05-14T01:04:58.283Z,12.07
2023-05-14T01:07:52.572Z,10.38
2023-05-14T01:10:36.990Z,8.93
2023-05-14T01:13:42.326Z,12.93
2023-05-14T01:16:13.772Z,10.85
2023-05-14T01:18:43.361Z,10.82
2023-05-14T01:21:35.227Z,11.63
2023-05-14T01:24:02.341Z,11.25
2023-05-14T01:26:31.440Z,11.38
2023-05-14T01:29:17.246Z,11.90
2023-05-14T01:31:47.253Z,10.60
2023-05-14T01:34:15.884Z,10.30
2023-05-14T01:36:44.010Z,8.45
2023-05-14T01:39:12.189Z,8.98
2023-05-14T01:41:40.021Z,9.68
2023-05-14T01:44:07.036Z,9.50
2023-05-14T01:46:34.134Z,9.80
2023-05-14T01:49:01.222Z,9.85
2023-05-14T01:51:28.295Z,9.45
2023-05-14T01:53:55.157Z,12.25
2023-05-14T01:56:23.874Z,9.52
2023-05-14T01:58:50.630Z,11.10
2023-05-14T02:01:17.674Z,9.10
2023-05-14T02:03:44.911Z,8.93
2023-05-14T02:06:11.998Z,9.88
2023-05-14T02:08:39.085Z,9.82
2023-05-14T02:11:05.923Z,10.88
2023-05-14T02:13:32.670Z,11.23
2023-05-14T02:15:59.531Z,11.30
2023-05-14T02:18:26.222Z,9.90
2023-05-14T02:20:53.178Z,10.88
2023-05-14T02:23:25.604Z,12.35
2023-05-14T02:25:58.033Z,10.10
2023-05-14T02:28:24.868Z,9.85
2023-05-14T02:30:51.796Z,9.75
2023-05-14T02:33:18.730Z,8.52
2023-05-14T02:35:45.523Z,12.07
2023-05-14T02:38:13.323Z,10.63
2023-05-14T02:40:40.130Z,12.23
2023-05-14T02:43:07.064Z,11.73
2023-05-14T02:45:33.899Z,11.13
2023-05-14T02:48:00.728Z,11.88
2023-05-14T02:50:27.909Z,11.90
2023-05-14T02:52:54.785Z,11.70
2023-05-14T02:55:26.375Z,14.73
2023-05-14T02:57:53.413Z,11.15
2023-05-14T03:00:20.752Z,12.40
2023-05-14T03:02:48.514Z,11.30
2023-05-14T03:05:15.913Z,13.60
2023-05-14T03:07:42.749Z,10.35
2023-05-14T03:10:09.875Z,9.63
2023-05-14T03:12:36.743Z,11.63
2023-05-14T03:15:04.015Z,11.18
2023-05-14T03:17:30.947Z,13.10
2023-05-14T03:19:57.715Z,11.27
2023-05-14T03:22:24.577Z,11.90
2023-05-14T03:24:51.265Z,12.05
2023-05-14T03:27:18.048Z,9.07
2023-05-14T03:29:45.900Z,11.73
2023-05-14T03:32:12.904Z,11.15
2023-05-14T03:34:40.061Z,11.80
2023-05-14T03:37:07.104Z,15.77
2023-05-14T03:39:34.031Z,11.93
2023-05-14T03:42:01.344Z,11.55
2023-05-14T03:44:28.743Z,11.57
2023-05-14T03:46:56.212Z,11.82
2023-05-14T03:49:25.519Z,12.43
2023-05-14T03:51:52.343Z,12.38
2023-05-14T03:54:19.332Z,12.43
2023-05-14T03:56:46.297Z,12.85
2023-05-14T03:59:13.493Z,13.55
2023-05-14T04:01:40.253Z,11.95
2023-05-14T04:04:07.334Z,14.77
2023-05-14T04:06:35.123Z,11.50
2023-05-14T04:09:03.450Z,10.50
2023-05-14T04:11:31.072Z,13.20
2023-05-14T04:13:59.590Z,11.77
2023-05-14T04:16:26.722Z,10.65
2023-05-14T04:18:53.790Z,11.30
2023-05-14T04:21:21.211Z,13.13
2023-05-14T04:23:48.117Z,13.18
2023-05-14T04:26:14.925Z,12.40
2023-05-14T04:28:41.705Z,15.48
2023-05-14T04:31:08.639Z,13.30
2023-05-14T04:33:35.506Z,14.05
2023-05-14T04:36:04.953Z,14.85
2023-05-14T04:38:32.124Z,13.15
2023-05-14T04:40:59.093Z,13.30
2023-05-14T04:43:25.994Z,14.18
2023-05-14T04:45:52.927Z,13.27
2023-05-14T04:48:19.900Z,13.07
2023-05-14T04:50:47.197Z,13.02
2023-05-14T04:53:14.069Z,14.68
2023-05-14T04:55:40.910Z,12.45
2023-05-14T04:58:07.850Z,13.73
2023-05-14T05:00:34.829Z,14.48
2023-05-14T05:03:01.622Z,14.20
2023-05-14T05:05:28.730Z,15.82
2023-05-14T05:07:55.962Z,18.48
2023-05-14T05:10:23.199Z,14.65
2023-05-14T05:12:50.480Z,14.40
2023-05-14T05:15:17.393Z,14.68
2023-05-14T05:17:44.308Z,12.13
2023-05-14T05:20:11.772Z,14.40
2023-05-14T05:22:38.700Z,13.95
2023-05-14T05:25:06.406Z,14.18
2023-05-14T05:27:33.869Z,13.95
2023-05-14T05:30:04.222Z,17.90
2023-05-14T05:32:31.359Z,16.48
2023-05-14T05:35:01.538Z,16.00
2023-05-14T05:37:28.624Z,15.60
2023-05-14T05:39:55.574Z,12.70
2023-05-14T05:42:22.725Z,16.30
2023-05-14T05:44:49.534Z,15.70
2023-05-14T05:47:17.179Z,16.60
2023-05-14T05:49:44.087Z,16.17
2023-05-14T05:52:11.139Z,15.10
2023-05-14T05:54:39.976Z,14.35
2023-05-14T05:57:07.162Z,14.02
2023-05-14T05:59:34.316Z,14.20
2023-05-14T06:02:01.434Z,16.55
2023-05-14T06:04:28.820Z,14.27
2023-05-14T06:06:56.614Z,15.10
2023-05-14T06:09:24.117Z,14.20
2023-05-14T06:11:51.388Z,15.23
2023-05-14T06:14:21.427Z,15.90
2023-05-14T06:16:50.149Z,13.68
2023-05-14T06:19:17.151Z,14.48
2023-05-14T06:21:44.442Z,13.98
2023-05-14T06:24:11.900Z,14.85
2023-05-14T06:26:38.823Z,13.98
2023-05-14T06:29:06.416Z,14.02
2023-05-14T06:31:34.012Z,13.45
2023-05-14T06:34:00.998Z,11.63
2023-05-14T06:36:28.063Z,13.45
2023-05-14T06:38:55.229Z,13.40
2023-05-14T06:41:22.920Z,11.98
2023-05-14T06:43:50.761Z,13.90
2023-05-14T06:46:47.962Z,11.20
2023-05-14T06:49:16.719Z,11.43
2023-05-14T06:51:49.626Z,9.98
2023-05-14T06:54:20.615Z,11.75
2023-05-14T06:56:52.080Z,11.82
2023-05-14T06:59:20.464Z,13.00
2023-05-14T07:01:49.188Z,10.13
2023-05-14T07:04:17.154Z,11.75
2023-05-14T07:06:55.986Z,9.98
2023-05-14T07:09:28.333Z,8.82
2023-05-14T07:12:09.160Z,12.43
2023-05-14T07:14:39.503Z,10.95
2023-05-14T07:17:09.133Z,9.50
2023-05-14T07:19:37.560Z,11.30
2023-05-14T07:22:05.687Z,10.25
2023-05-14T07:24:33.298Z,10.10
2023-05-14T07:27:02.264Z,9.25
2023-05-14T07:29:30.378Z,9.20
2023-05-14T07:31:59.759Z,10.90
2023-05-14T07:34:27.964Z,8.95
2023-05-14T07:37:00.691Z,8.40
2023-05-14T07:39:29.625Z,9.07
2023-05-14T07:41:58.000Z,7.78
2023-05-14T07:44:27.660Z,7.80
2023-05-14T07:46:55.754Z,7.53
2023-05-14T07:49:24.422Z,8.02
2023-05-14T07:51:54.511Z,7.72
2023-05-14T07:54:25.322Z,9.27
2023-05-14T07:56:52.356Z,8.40
2023-05-14T07:59:19.896Z,8.32
2023-05-14T08:01:47.012Z,8.43
2023-05-14T08:04:16.385Z,7.93
2023-05-14T08:06:43.410Z,8.75
2023-05-14T08:09:10.351Z,8.32
2023-05-14T08:11:39.384Z,7.72
2023-05-14T08:14:06.761Z,8.10
2023-05-14T08:16:33.817Z,7.97
2023-05-14T08:19:01.501Z,6.32
2023-05-14T08:21:29.674Z,6.28
2023-05-14T08:23:56.699Z,6.57
2023-05-14T08:26:24.170Z,6.18
2023-05-14T08:28:51.403Z,5.43
2023-05-14T08:31:18.775Z,6.15
2023-05-14T08:33:46.537Z,6.85
2023-05-14T08:36:14.595Z,6.65
2023-05-14T08:38:42.552Z,5.13
2023-05-14T08:41:11.772Z,6.07
2023-05-14T08:43:50.502Z,4.60
2023-05-14T08:46:18.250Z,5.00
2023-05-14T08:48:53.374Z,6.28
2023-05-14T08:51:20.514Z,3.97
2023-05-14T08:53:48.677Z,4.35
2023-05-14T08:56:18.330Z,4.68
2023-05-14T08:58:46.342Z,4.88
2023-05-14T09:01:13.288Z,4.72
2023-05-14T09:03:42.336Z,4.38
2023-05-14T09:06:10.788Z,4.30
2023-05-14T09:08:38.899Z,4.60
2023-05-14T09:11:05.875Z,4.10
2023-05-14T09:13:32.814Z,5.18
2023-05-14T09:16:00.889Z,5.15
2023-05-14T09:18:27.952Z,4.13
2023-05-14T09:20:54.902Z,4.60
2023-05-14T09:23:21.810Z,4.72
2023-05-14T09:25:48.836Z,5.03
2023-05-14T09:28:17.301Z,6.82
2023-05-14T09:30:51.680Z,7.05
2023-05-14T09:33:29.168Z,5.97
2023-05-14T09:36:01.605Z,5.70
2023-05-14T09:38:30.418Z,4.78
2023-05-14T09:40:58.181Z,3.97
2023-05-14T09:43:26.062Z,3.40
2023-05-14T09:45:53.214Z,4.72
2023-05-14T09:48:20.515Z,4.80
2023-05-14T09:50:47.348Z,4.20
2023-05-14T09:53:14.718Z,4.68
2023-05-14T09:55:42.022Z,5.30
2023-05-14T09:58:09.102Z,6.78
2023-05-14T10:00:36.438Z,4.55
2023-05-14T10:03:08.351Z,3.90
2023-05-14T10:05:38.843Z,5.97
2023-05-14T10:08:13.428Z,3.85
2023-05-14T10:10:40.886Z,5.25
2023-05-14T10:13:14.978Z,4.53
2023-05-14T10:16:14.348Z,5.40
2023-05-14T10:18:48.953Z,4.90
2023-05-14T10:21:24.034Z,5.40
2023-05-14T10:23:54.042Z,4.18
2023-05-14T10:26:24.009Z,4.85
2023-05-14T10:28:51.209Z,6.85
2023-05-14T10:31:22.833Z,5.50
2023-05-14T10:33:55.772Z,5.30
2023-05-14T10:36:24.012Z,4.32
2023-05-14T10:38:57.491Z,4.78
2023-05-14T10:41:25.244Z,4.10
2023-05-14T10:43:52.652Z,4.97
2023-05-14T10:46:20.384Z,5.20
2023-05-14T10:48:48.379Z,4.60
2023-05-14T10:51:17.620Z,5.75
2023-05-14T10:53:45.201Z,4.72
2023-05-14T10:56:13.839Z,5.32
2023-05-14T10:58:44.080Z,3.80
2023-05-14T11:01:12.911Z,3.42
2023-05-14T11:03:41.914Z,4.57
2023-05-14T11:06:10.815Z,4.97
2023-05-14T11:08:38.920Z,4.93
2023-05-14T11:11:07.060Z,4.07
2023-05-14T11:13:34.790Z,3.67
2023-05-14T11:16:11.993Z,3.75
2023-05-14T11:18:54.963Z,4.03
2023-05-14T11:21:21.996Z,4.28
2023-05-14T11:23:49.105Z,4.55
2023-05-14T11:26:16.503Z,4.50
2023-05-14T11:28:44.638Z,3.85
2023-05-14T11:31:11.776Z,2.75
2023-05-14T11:33:40.252Z,2.97
2023-05-14T11:36:07.126Z,3.35
2023-05-14T11:38:33.986Z,3.50
2023-05-14T11:41:01.470Z,3.70
2023-05-14T11:43:29.474Z,5.93
2023-05-14T11:45:56.995Z,5.75
2023-05-14T11:48:34.935Z,3.28
2023-05-14T11:51:04.833Z,3.40
2023-05-14T11:53:32.530Z,4.45
2023-05-14T11:55:59.880Z,3.00
2023-05-14T11:58:26.776Z,3.13
2023-05-14T12:00:56.124Z,3.70
2023-05-14T12:03:26.390Z,3.42
2023-05-14T12:05:57.734Z,4.13
2023-05-14T12:08:31.925Z,3.25
2023-05-14T12:11:00.846Z,3.40
2023-05-14T12:13:30.110Z,3.47
2023-05-14T12:16:02.220Z,3.08
2023-05-14T12:18:31.767Z,2.70
2023-05-14T12:21:08.397Z,2.97
2023-05-14T12:23:35.840Z,4.47
2023-05-14T12:26:06.158Z,3.55
2023-05-14T12:28:38.872Z,4.30
2023-05-14T12:31:06.019Z,3.70
2023-05-14T12:33:32.866Z,2.67
2023-05-14T12:38:33.170Z,2.13
2023-05-14T12:41:01.908Z,3.28
2023-05-14T12:43:31.582Z,3.03
2023-05-14T12:45:58.292Z,2.42
2023-05-14T12:48:25.151Z,2.58
2023-05-14T12:50:52.101Z,2.97
2023-05-14T12:53:18.976Z,3.08
2023-05-14T12:55:46.831Z,2.80
2023-05-14T12:58:13.800Z,3.95
2023-05-14T13:00:40.756Z,2.95
2023-05-14T13:03:08.116Z,3.80
2023-05-14T13:05:35.090Z,3.33
2023-05-14T13:08:04.030Z,4.30
2023-05-14T13:10:30.861Z,2.65
2023-05-14T13:12:58.246Z,3.33
2023-05-14T13:15:25.475Z,2.92
2023-05-14T13:17:52.596Z,2.40
2023-05-14T13:20:20.144Z,3.17
2023-05-14T13:22:46.993Z,4.10
2023-05-14T13:25:13.889Z,3.10
2023-05-14T13:27:41.240Z,2.88
2023-05-14T13:30:08.591Z,4.07
2023-05-14T13:32:35.939Z,4.35
2023-05-14T13:35:02.726Z,3.13
2023-05-14T13:37:29.534Z,3.03
2023-05-14T13:39:56.384Z,3.03
2023-05-14T13:42:23.808Z,3.17
2023-05-14T13:44:50.873Z,3.17
2023-05-14T13:47:17.872Z,4.28
2023-05-14T13:49:44.736Z,3.50
2023-05-14T13:52:11.771Z,2.67
2023-05-14T13:54:38.669Z,2.65
2023-05-14T13:57:06.078Z,3.85
2023-05-14T13:59:33.047Z,2.78
2023-05-14T14:02:00.083Z,3.90
2023-05-14T14:04:29.367Z,2.47
2023-05-14T14:06:56.781Z,3.30
2023-05-14T14:09:24.374Z,5.15
2023-05-14T14:11:51.583Z,2.60
2023-05-14T14:14:18.927Z,4.45
2023-05-14T14:16:45.926Z,1.83
2023-05-14T14:19:12.767Z,2.50
2023-05-14T14:21:43.022Z,3.58
2023-05-14T14:24:10.117Z,3.15
2023-05-14T14:26:37.115Z,2.53
2023-05-14T14:29:04.286Z,2.75
2023-05-14T14:31:31.240Z,4.28
2023-05-14T14:33:58.122Z,3.10
2023-05-14T14:36:24.901Z,3.75
2023-05-14T14:38:51.709Z,2.28
2023-05-14T14:41:18.738Z,4.43
2023-05-14T14:43:45.731Z,2.90
2023-05-14T14:46:12.879Z,4.28
2023-05-14T14:48:43.482Z,4.05
2023-05-14T14:51:10.355Z,4.90
2023-05-14T14:53:37.358Z,2.83
2023-05-14T14:56:04.867Z,3.10
2023-05-14T14:58:32.283Z,3.00
2023-05-14T15:00:59.629Z,2.78
2023-05-14T15:03:29.229Z,5.00
2023-05-14T15:05:56.389Z,6.15
2023-05-14T15:08:27.536Z,7.70
2023-05-14T15:10:57.727Z,4.07
2023-05-14T15:13:25.150Z,5.63
2023-05-14T15:15:55.452Z,4.70
2023-05-14T15:18:22.267Z,4.13
2023-05-14T15:20:49.677Z,4.53
2023-05-14T15:23:17.809Z,4.25
2023-05-14T15:25:44.825Z,4.00
2023-05-14T15:28:12.996Z,3.83
2023-05-14T15:30:41.399Z,3.92
2023-05-14T15:33:09.025Z,5.03
2023-05-14T15:35:36.518Z,5.13
2023-05-14T15:38:03.699Z,3.75
2023-05-14T15:40:30.752Z,4.25
2023-05-14T15:42:57.463Z,3.55
2023-05-14T15:45:24.261Z,4.25
2023-05-14T15:47:51.187Z,4.50
2023-05-14T15:50:18.169Z,3.90
2023-05-14T15:52:44.989Z,4.28
2023-05-14T15:55:12.081Z,3.42
2023-05-14T15:57:39.066Z,4.50
2023-05-14T16:00:12.344Z,3.58
2023-05-14T16:02:40.203Z,4.65
2023-05-14T16:05:07.891Z,3.72
2023-05-14T16:07:37.016Z,2.92
2023-05-14T16:10:04.977Z,3.45
2023-05-14T16:12:32.191Z,3.80
2023-05-14T16:15:00.073Z,3.33
2023-05-14T16:17:28.596Z,4.30
2023-05-14T16:19:56.412Z,3.45
2023-05-14T16:22:23.588Z,4.28
2023-05-14T16:24:50.498Z,4.43
2023-05-14T16:27:19.237Z,3.67
2023-05-14T16:29:46.160Z,3.65
2023-05-14T16:32:13.080Z,4.10
2023-05-14T16:34:40.742Z,5.35
2023-05-14T16:37:08.094Z,4.53
2023-05-14T16:39:34.940Z,5.55
2023-05-14T16:42:02.200Z,3.30
2023-05-14T16:44:29.987Z,4.95
2023-05-14T16:46:56.803Z,4.30
2023-05-14T16:49:23.653Z,2.90
2023-05-14T16:51:50.376Z,3.30
2023-05-14T16:54:17.268Z,4.22
2023-05-14T16:56:48.206Z,6.43
2023-05-14T16:59:16.103Z,3.25
2023-05-14T17:01:43.881Z,4.03
2023-05-14T17:04:11.034Z,4.20
2023-05-14T17:06:37.927Z,4.25
2023-05-14T17:09:05.318Z,4.03
2023-05-14T17:11:32.227Z,3.75
2023-05-14T17:13:59.039Z,3.95
2023-05-14T17:16:27.121Z,4.10
2023-05-14T17:18:54.140Z,5.10
2023-05-14T17:21:21.147Z,4.10
2023-05-14T17:23:47.965Z,5.03
2023-05-14T17:26:14.825Z,4.07
2023-05-14T17:28:41.714Z,3.92
2023-05-14T17:31:08.765Z,3.58
2023-05-14T17:33:36.046Z,4.22
2023-05-14T17:36:03.576Z,5.20
2023-05-14T17:38:30.408Z,4.80
2023-05-14T17:40:57.463Z,4.90
2023-05-14T17:43:24.185Z,5.57
2023-05-14T17:45:54.296Z,4.05
2023-05-14T17:48:22.935Z,4.35
2023-05-14T17:50:51.674Z,6.30
2023-05-14T17:53:18.596Z,3.95
2023-05-14T17:55:45.506Z,3.35
2023-05-14T17:58:14.431Z,4.57
2023-05-14T18:00:42.455Z,3.95
2023-05-14T18:03:10.435Z,3.78
2023-05-14T18:05:37.507Z,4.35
2023-05-14T18:08:04.599Z,4.10
2023-05-14T18:10:31.464Z,5.13
2023-05-14T18:12:58.233Z,4.75
2023-05-14T18:15:25.860Z,4.85
2023-05-14T18:17:53.421Z,4.10
2023-05-14T18:20:23.668Z,4.35
2023-05-14T18:22:51.453Z,5.72
2023-05-14T18:25:18.379Z,4.85
2023-05-14T18:27:45.515Z,4.45
2023-05-14T18:30:14.712Z,6.30
2023-05-14T18:32:43.827Z,4.07
2023-05-14T18:35:11.882Z,4.63
2023-05-14T18:37:39.493Z,4.75
2023-05-14T18:40:07.673Z,5.10
2023-05-14T18:42:34.991Z,4.15
2023-05-14T18:45:02.673Z,5.68
2023-05-14T18:47:29.876Z,6.13
2023-05-14T18:49:59.380Z,6.75
2023-05-14T18:52:26.758Z,6.97
2023-05-14T18:54:54.855Z,7.03
2023-05-14T18:57:22.422Z,5.90
2023-05-14T18:59:49.715Z,6.57
2023-05-14T19:02:17.762Z,5.97
2023-05-14T19:04:52.343Z,5.88
2023-05-14T19:07:21.544Z,6.43
2023-05-14T19:09:49.327Z,5.65
2023-05-14T19:12:17.566Z,6.90
2023-05-14T19:14:44.687Z,5.30
2023-05-14T19:17:12.417Z,6.95
2023-05-14T19:19:39.531Z,6.82
2023-05-14T19:22:06.977Z,7.65
2023-05-14T19:24:34.238Z,7.07
2023-05-14T19:27:01.418Z,6.95
2023-05-14T19:29:28.807Z,7.32
2023-05-14T19:31:55.981Z,8.93
2023-05-14T19:34:23.175Z,7.82
2023-05-14T19:36:50.829Z,6.88
2023-05-14T19:39:19.731Z,7.10
2023-05-14T19:41:46.938Z,6.82
2023-05-14T19:44:14.235Z,5.90
2023-05-14T19:46:41.502Z,7.20
2023-05-14T19:49:08.324Z,7.40
2023-05-14T19:51:35.429Z,5.53
2023-05-14T19:54:02.443Z,5.75
2023-05-14T19:56:32.122Z,5.85
2023-05-14T19:59:03.523Z,6.10
2023-05-14T20:01:34.534Z,6.40
2023-05-14T20:04:06.432Z,4.90
2023-05-14T20:06:34.348Z,6.22
2023-05-14T20:09:04.731Z,6.05
2023-05-14T20:11:36.736Z,7.35
2023-05-14T20:14:03.874Z,6.25
2023-05-14T20:16:31.750Z,6.32
2023-05-14T20:18:58.685Z,6.05
2023-05-14T20:21:25.572Z,7.10
2023-05-14T20:23:52.548Z,5.82
2023-05-14T20:26:19.347Z,8.10
2023-05-14T20:28:46.193Z,7.88
2023-05-14T20:31:13.238Z,6.28
2023-05-14T20:33:40.708Z,8.25
2023-05-14T20:36:07.634Z,7.93
2023-05-14T20:38:35.447Z,9.30
2023-05-14T20:41:02.425Z,7.57
2023-05-14T20:43:29.449Z,8.07
2023-05-14T20:45:57.385Z,7.95
2023-05-14T20:48:24.099Z,6.68
2023-05-14T20:50:51.194Z,9.82
2023-05-14T20:53:18.859Z,6.97
2023-05-14T20:55:45.918Z,7.20
2023-05-14T20:58:12.637Z,7.40
2023-05-14T21:00:39.408Z,6.90
2023-05-14T21:03:06.319Z,8.93
2023-05-14T21:05:33.225Z,8.05
2023-05-14T21:08:00.167Z,7.30
2023-05-14T21:10:27.124Z,10.57
2023-05-14T21:12:54.131Z,8.10
2023-05-14T21:15:20.933Z,7.60
2023-05-14T21:17:47.714Z,7.13
2023-05-14T21:20:15.767Z,9.98
2023-05-14T21:22:42.672Z,9.25
2023-05-14T21:25:09.971Z,8.90
2023-05-14T21:27:37.318Z,8.48
2023-05-14T21:30:04.513Z,9.75
2023-05-14T21:32:31.273Z,8.65
2023-05-14T21:34:58.142Z,8.95
2023-05-14T21:37:25.050Z,9.82
2023-05-14T21:39:51.797Z,10.45
2023-05-14T21:42:21.066Z,11.68
2023-05-14T21:44:47.969Z,10.88
2023-05-14T21:47:16.165Z,10.50
2023-05-14T21:49:43.413Z,12.95
2023-05-14T21:52:10.862Z,11.57
2023-05-14T21:54:37.737Z,11.18
2023-05-14T21:57:04.804Z,11.50
2023-05-14T21:59:31.552Z,12.57
2023-05-14T22:04:28.512Z,12.32
2023-05-14T22:06:55.700Z,10.18
2023-05-14T22:09:22.527Z,11.82
2023-05-14T22:11:49.451Z,11.85
2023-05-14T22:14:16.265Z,12.80
2023-05-14T22:16:43.091Z,11.13
2023-05-14T22:19:09.947Z,11.73
2023-05-14T22:21:36.822Z,14.73
2023-05-14T22:24:03.732Z,10.98
2023-05-14T22:26:30.688Z,12.55
2023-05-14T22:28:57.743Z,13.75
2023-05-14T22:31:24.819Z,12.02
2023-05-14T22:33:51.680Z,10.73
2023-05-14T22:36:18.995Z,10.93
2023-05-14T22:38:46.899Z,13.52
2023-05-14T22:41:13.675Z,12.38
2023-05-14T22:43:41.147Z,12.60
2023-05-14T22:46:08.138Z,10.85
2023-05-14T22:48:35.053Z,13.43
2023-05-14T22:51:01.780Z,13.68
2023-05-14T22:53:28.542Z,13.27
2023-05-14T22:55:55.313Z,11.77
2023-05-14T22:58:22.199Z,11.93
2023-05-14T23:00:49.032Z,12.90
2023-05-14T23:03:16.110Z,15.43
2023-05-14T23:05:43.023Z,13.23
2023-05-14T23:08:10.969Z,14.77
2023-05-14T23:10:37.716Z,13.55
2023-05-14T23:13:06.649Z,12.38
2023-05-14T23:15:33.590Z,14.55
2023-05-14T23:18:00.693Z,13.48
2023-05-14T23:20:27.529Z,14.30
2023-05-14T23:22:54.421Z,13.88
2023-05-14T23:25:21.350Z,12.73
2023-05-14T23:27:48.252Z,14.35
2023-05-14T23:30:15.293Z,13.75
2023-05-14T23:32:42.212Z,13.07
2023-05-14T23:35:09.912Z,12.75
2023-05-14T23:37:41.781Z,12.55
2023-05-14T23:40:09.650Z,13.82
2023-05-14T23:42:36.451Z,13.77
2023-05-14T23:45:03.651Z,13.05
2023-05-14T23:47:30.668Z,11.95
2023-05-14T23:49:57.607Z,14.07
2023-05-14T23:52:24.404Z,14.25
2023-05-14T23:54:51.327Z,13.10
2023-05-14T23:57:18.405Z,13.80
2023-05-14T23:59:46.140Z,14.55
